createdAt,value
2022-09-27T00:01:21.370Z,90.19
2022-09-27T00:04:01.709Z,90.33
2022-09-27T00:06:39.910Z,90.54
2022-09-27T00:09:11.839Z,90.69
2022-09-27T00:11:45.945Z,90.80
2022-09-27T00:14:20.098Z,90.87
2022-09-27T00:16:53.253Z,90.94
2022-09-27T00:19:27.258Z,90.98
2022-09-27T00:22:01.839Z,91.05
2022-09-27T00:24:34.800Z,91.08
2022-09-27T00:27:07.916Z,91.08
2022-09-27T00:29:40.776Z,91.08
2022-09-27T00:32:15.365Z,91.10
2022-09-27T00:34:47.499Z,91.15
2022-09-27T00:37:21.465Z,91.24
2022-09-27T00:39:54.450Z,91.24
2022-09-27T00:42:27.555Z,91.30
2022-09-27T00:45:07.878Z,91.25
2022-09-27T00:47:57.738Z,91.11
2022-09-27T00:50:43.842Z,91.15
2022-09-27T00:53:30.659Z,91.22
2022-09-27T00:56:08.407Z,91.30
2022-09-27T00:58:46.040Z,91.38
2022-09-27T01:01:20.271Z,91.54
2022-09-27T01:04:17.013Z,91.72
2022-09-27T01:06:50.201Z,91.87
2022-09-27T01:09:24.005Z,91.98
2022-09-27T01:12:25.297Z,92.11
2022-09-27T01:15:31.489Z,92.21
2022-09-27T01:18:31.337Z,92.32
2022-09-27T01:21:33.150Z,92.38
2022-09-27T01:24:49.945Z,92.49
2022-09-27T01:27:39.286Z,92.56
2022-09-27T01:30:29.420Z,92.72
2022-09-27T01:33:13.036Z,92.74
2022-09-27T01:36:08.215Z,92.86
2022-09-27T01:38:46.841Z,93.09
2022-09-27T01:41:30.731Z,93.28
2022-09-27T01:44:16.255Z,93.37
2022-09-27T01:46:57.300Z,93.45
2022-09-27T01:50:03.076Z,93.48
2022-09-27T01:52:44.858Z,93.51
2022-09-27T01:55:20.516Z,93.40
2022-09-27T01:58:02.636Z,93.42
2022-09-27T02:00:38.144Z,93.43
2022-09-27T02:03:18.540Z,93.39
2022-09-27T02:06:03.850Z,93.27
2022-09-27T02:09:13.741Z,93.22
2022-09-27T02:11:56.053Z,93.12
2022-09-27T02:14:32.033Z,93.13
2022-09-27T02:17:20.322Z,93.33
2022-09-27T02:20:12.080Z,93.58
2022-09-27T02:23:16.609Z,93.86
2022-09-27T02:26:08.455Z,94.06
2022-09-27T02:28:52.851Z,94.28
2022-09-27T02:31:27.689Z,94.43
2022-09-27T02:34:15.354Z,94.57
2022-09-27T02:36:48.866Z,94.59
2022-09-27T02:39:22.891Z,94.65
2022-09-27T02:41:59.739Z,94.75
2022-09-27T02:44:32.887Z,94.77
2022-09-27T02:47:47.651Z,94.71
2022-09-27T02:50:51.859Z,94.65
2022-09-27T02:53:36.817Z,94.59
2022-09-27T02:56:21.951Z,94.61
2022-09-27T02:59:21.816Z,94.78
2022-09-27T03:02:13.993Z,94.99
2022-09-27T03:05:05.057Z,95.09
2022-09-27T03:07:38.970Z,95.17
2022-09-27T03:10:22.022Z,95.27
2022-09-27T03:12:56.412Z,95.35
2022-09-27T03:15:29.415Z,95.31
2022-09-27T03:18:08.792Z,95.35
2022-09-27T03:20:47.501Z,95.44
2022-09-27T03:23:22.692Z,95.40
2022-09-27T03:25:57.623Z,95.38
2022-09-27T03:28:31.628Z,95.41
2022-09-27T03:31:05.417Z,95.47
2022-09-27T03:33:56.633Z,95.49
2022-09-27T03:36:29.685Z,95.49
2022-09-27T03:39:03.238Z,95.46
2022-09-27T03:41:36.445Z,95.27
2022-09-27T03:44:09.930Z,95.24
2022-09-27T03:46:43.308Z,95.31
2022-09-27T03:49:16.690Z,95.36
2022-09-27T03:51:49.991Z,95.25
2022-09-27T03:54:23.198Z,95.28
2022-09-27T03:56:56.666Z,95.32
2022-09-27T03:59:30.413Z,95.39
2022-09-27T04:02:05.409Z,95.40
2022-09-27T04:04:40.095Z,95.43
2022-09-27T04:07:13.213Z,95.46
2022-09-27T04:09:47.183Z,95.46
2022-09-27T04:12:20.711Z,95.47
2022-09-27T04:14:55.491Z,95.45
2022-09-27T04:17:46.117Z,95.30
2022-09-27T04:20:31.135Z,95.26
2022-09-27T04:23:05.199Z,95.28
2022-09-27T04:25:40.140Z,95.12
2022-09-27T04:28:24.155Z,95.12
2022-09-27T04:30:58.044Z,95.18
2022-09-27T04:33:39.486Z,95.34
2022-09-27T04:36:29.754Z,95.44
2022-09-27T04:39:07.958Z,95.47
2022-09-27T04:41:42.510Z,95.52
2022-09-27T04:44:15.491Z,95.67
2022-09-27T04:46:50.517Z,95.79
2022-09-27T04:49:23.932Z,95.92
2022-09-27T04:51:57.505Z,96.08
2022-09-27T04:54:31.026Z,96.13
2022-09-27T04:57:05.886Z,96.07
2022-09-27T04:59:40.858Z,96.06
2022-09-27T05:02:14.354Z,96.03
2022-09-27T05:05:06.939Z,95.95
2022-09-27T05:07:42.733Z,95.83
2022-09-27T05:10:17.896Z,95.64
2022-09-27T05:12:51.912Z,95.50
2022-09-27T05:15:25.212Z,95.36
2022-09-27T05:18:18.338Z,95.22
2022-09-27T05:21:02.109Z,94.96
2022-09-27T05:23:41.951Z,94.73
2022-09-27T05:26:14.662Z,94.43
2022-09-27T05:28:48.460Z,94.14
2022-09-27T05:31:21.827Z,93.88
2022-09-27T05:33:55.974Z,93.67
2022-09-27T05:36:38.047Z,93.55
2022-09-27T05:39:11.331Z,93.45
2022-09-27T05:41:44.935Z,93.32
2022-09-27T05:44:19.285Z,93.39
2022-09-27T05:46:54.147Z,93.38
2022-09-27T05:49:28.038Z,93.49
2022-09-27T05:52:01.518Z,93.58
2022-09-27T05:54:35.771Z,93.54
2022-09-27T05:57:09.427Z,93.58
2022-09-27T05:59:50.311Z,93.71
2022-09-27T06:02:26.795Z,93.87
2022-09-27T06:05:17.981Z,93.94
2022-09-27T06:08:05.315Z,94.01
2022-09-27T06:10:41.813Z,94.08
2022-09-27T06:13:17.068Z,94.06
2022-09-27T06:15:51.896Z,94.23
2022-09-27T06:18:25.589Z,94.21
2022-09-27T06:21:01.101Z,94.12
2022-09-27T06:23:35.081Z,93.97
2022-09-27T06:26:11.356Z,93.86
2022-09-27T06:28:50.533Z,93.76
2022-09-27T06:31:24.017Z,93.59
2022-09-27T06:34:10.858Z,93.40
2022-09-27T06:36:46.165Z,93.48
2022-09-27T06:39:20.743Z,93.73
2022-09-27T06:42:00.402Z,93.84
2022-09-27T06:44:51.176Z,93.97
2022-09-27T06:47:42.177Z,93.96
2022-09-27T06:50:22.674Z,94.00
2022-09-27T06:53:01.201Z,93.88
2022-09-27T06:55:34.620Z,93.75
2022-09-27T06:58:28.564Z,93.48
2022-09-27T07:01:20.747Z,93.09
2022-09-27T07:04:13.578Z,92.96
2022-09-27T07:06:48.877Z,92.63
2022-09-27T07:09:29.188Z,92.25
2022-09-27T07:12:02.684Z,91.69
2022-09-27T07:14:37.165Z,91.16
2022-09-27T07:17:11.321Z,90.96
2022-09-27T07:19:46.435Z,90.39
2022-09-27T07:22:19.520Z,89.70
2022-09-27T07:24:54.188Z,89.30
2022-09-27T07:27:29.017Z,89.04
2022-09-27T07:30:02.245Z,88.81
2022-09-27T07:32:37.115Z,88.69
2022-09-27T07:35:14.885Z,88.70
2022-09-27T07:37:49.055Z,88.64
2022-09-27T07:40:22.546Z,88.55
2022-09-27T07:43:01.839Z,88.35
2022-09-27T07:45:35.387Z,87.85
2022-09-27T07:48:17.727Z,87.63
2022-09-27T07:50:53.636Z,87.60
2022-09-27T07:53:28.505Z,87.26
2022-09-27T07:56:07.040Z,87.38
2022-09-27T07:58:40.473Z,87.24
2022-09-27T08:01:14.522Z,87.11
2022-09-27T08:03:47.738Z,86.92
2022-09-27T08:06:21.599Z,86.51
2022-09-27T08:08:55.231Z,85.96
2022-09-27T08:11:28.560Z,85.48
2022-09-27T08:14:04.560Z,85.45
2022-09-27T08:16:39.387Z,85.44
2022-09-27T08:19:23.580Z,85.21
2022-09-27T08:22:00.922Z,85.21
2022-09-27T08:24:35.704Z,85.20
2022-09-27T08:27:12.219Z,85.16
2022-09-27T08:29:56.384Z,85.12
2022-09-27T08:32:31.078Z,84.83
2022-09-27T08:35:07.753Z,84.60
2022-09-27T08:37:40.867Z,84.62
2022-09-27T08:40:17.875Z,84.56
2022-09-27T08:43:17.331Z,84.35
2022-09-27T08:46:22.269Z,84.25
2022-09-27T08:49:00.250Z,84.42
2022-09-27T08:51:34.399Z,84.85
2022-09-27T08:54:14.955Z,85.03
2022-09-27T08:56:50.613Z,85.10
2022-09-27T08:59:27.331Z,85.10
2022-09-27T09:02:00.230Z,85.08
2022-09-27T09:04:41.346Z,84.72
2022-09-27T09:08:04.428Z,83.99
2022-09-27T09:11:05.616Z,83.78
2022-09-27T09:13:55.976Z,83.81
2022-09-27T09:16:48.725Z,83.61
2022-09-27T09:19:49.209Z,83.30
2022-09-27T09:22:53.180Z,82.80
2022-09-27T09:25:32.614Z,81.61
2022-09-27T09:28:30.040Z,80.42
2022-09-27T09:31:10.153Z,79.32
2022-09-27T09:34:03.997Z,78.55
2022-09-27T09:36:43.247Z,77.50
2022-09-27T09:39:23.913Z,76.56
2022-09-27T09:42:04.639Z,75.86
2022-09-27T09:45:05.870Z,74.91
2022-09-27T09:48:02.296Z,73.87
2022-09-27T09:50:45.586Z,73.53
2022-09-27T09:53:44.933Z,73.81
2022-09-27T09:56:25.168Z,73.00
2022-09-27T09:59:04.817Z,72.53
2022-09-27T10:01:44.426Z,72.76
2022-09-27T10:04:24.539Z,72.77
2022-09-27T10:07:00.358Z,72.83
2022-09-27T10:09:35.291Z,73.04
2022-09-27T10:12:13.666Z,73.30
2022-09-27T10:14:50.439Z,73.37
2022-09-27T10:17:27.668Z,73.56
2022-09-27T10:20:03.606Z,73.76
2022-09-27T10:22:49.606Z,73.61
2022-09-27T10:25:24.837Z,73.57
2022-09-27T10:28:00.352Z,73.43
2022-09-27T10:30:38.728Z,73.58
2022-09-27T10:33:20.760Z,73.91
2022-09-27T10:35:55.283Z,73.91
2022-09-27T10:38:37.356Z,73.92
2022-09-27T10:41:39.912Z,74.09
2022-09-27T10:44:22.519Z,73.95
2022-09-27T10:47:16.729Z,73.83
2022-09-27T10:49:52.931Z,73.56
2022-09-27T10:52:38.774Z,73.64
2022-09-27T10:55:27.095Z,73.97
2022-09-27T10:58:00.799Z,74.24
2022-09-27T11:00:36.483Z,74.30
2022-09-27T11:03:16.563Z,74.25
2022-09-27T11:05:50.743Z,74.51
2022-09-27T11:08:33.920Z,74.89
2022-09-27T11:11:30.320Z,74.88
2022-09-27T11:14:19.522Z,75.05
2022-09-27T11:17:20.488Z,75.43
2022-09-27T11:20:11.427Z,75.56
2022-09-27T11:23:25.388Z,75.19
2022-09-27T11:26:09.824Z,74.99
2022-09-27T11:29:03.206Z,74.49
2022-09-27T11:31:57.231Z,74.46
2022-09-27T11:34:53.575Z,74.78
2022-09-27T11:37:52.145Z,75.21
2022-09-27T11:40:55.287Z,75.78
2022-09-27T11:43:48.141Z,75.89
2022-09-27T11:46:41.344Z,76.00
2022-09-27T11:50:02.760Z,76.08
2022-09-27T11:52:52.718Z,75.93
2022-09-27T11:55:49.698Z,75.27
2022-09-27T11:58:51.072Z,75.01
2022-09-27T12:01:46.482Z,75.12
2022-09-27T12:04:40.498Z,75.20
2022-09-27T12:07:31.926Z,75.35
2022-09-27T12:10:14.066Z,74.90
2022-09-27T12:12:52.193Z,74.47
2022-09-27T12:15:36.025Z,74.11
2022-09-27T12:18:39.291Z,73.44
2022-09-27T12:21:14.796Z,73.23
2022-09-27T12:24:00.879Z,73.08
2022-09-27T12:26:44.372Z,72.97
2022-09-27T12:29:34.303Z,72.83
2022-09-27T12:32:39.048Z,72.12
2022-09-27T12:35:31.001Z,71.25
2022-09-27T12:38:17.076Z,70.64
2022-09-27T12:40:56.828Z,70.51
2022-09-27T12:43:32.411Z,70.43
2022-09-27T12:47:01.771Z,70.17
2022-09-27T12:49:46.987Z,70.20
2022-09-27T12:52:25.727Z,70.28
2022-09-27T12:55:30.602Z,70.17
2022-09-27T12:58:32.292Z,69.92
2022-09-27T13:01:37.853Z,69.61
2022-09-27T13:04:34.367Z,69.46
2022-09-27T13:07:17.893Z,69.30
2022-09-27T13:10:13.055Z,69.31
2022-09-27T13:12:51.354Z,69.16
2022-09-27T13:15:36.696Z,69.28
2022-09-27T13:18:31.451Z,69.30
2022-09-27T13:21:06.572Z,69.48
2022-09-27T13:23:46.054Z,69.65
2022-09-27T13:26:36.053Z,69.89
2022-09-27T13:29:27.063Z,70.04
2022-09-27T13:32:03.998Z,70.34
2022-09-27T13:34:52.082Z,70.59
2022-09-27T13:37:51.443Z,70.92
2022-09-27T13:40:43.554Z,71.40
2022-09-27T13:43:40.539Z,71.73
2022-09-27T13:46:21.629Z,72.25
2022-09-27T13:49:09.079Z,72.68
2022-09-27T13:52:23.067Z,73.00
2022-09-27T13:55:40.605Z,73.18
2022-09-27T13:58:22.085Z,73.49
2022-09-27T14:00:59.797Z,73.53
2022-09-27T14:03:50.487Z,73.64
2022-09-27T14:06:30.649Z,73.86
2022-09-27T14:09:09.054Z,74.12
2022-09-27T14:11:45.023Z,74.27
2022-09-27T14:14:23.123Z,74.33
2022-09-27T14:16:59.464Z,74.36
2022-09-27T14:19:33.868Z,74.47
2022-09-27T14:22:22.591Z,74.67
2022-09-27T14:24:58.474Z,74.85
2022-09-27T14:27:40.355Z,75.11
2022-09-27T14:30:21.836Z,75.26
2022-09-27T14:33:00.426Z,75.39
2022-09-27T14:36:06.300Z,75.53
2022-09-27T14:38:40.298Z,75.52
2022-09-27T14:41:16.234Z,75.46
2022-09-27T14:43:52.501Z,75.44
2022-09-27T14:46:30.226Z,75.50
2022-09-27T14:49:23.300Z,75.62
2022-09-27T14:51:59.202Z,75.83
2022-09-27T14:54:32.555Z,76.22
2022-09-27T14:57:05.534Z,76.45
2022-09-27T14:59:40.107Z,76.58
2022-09-27T15:02:17.447Z,76.71
2022-09-27T15:04:51.977Z,76.91
2022-09-27T15:07:26.056Z,77.12
2022-09-27T15:10:00.704Z,77.32
2022-09-27T15:12:35.737Z,77.69
2022-09-27T15:15:13.691Z,77.84
2022-09-27T15:17:48.451Z,77.98
2022-09-27T15:20:35.701Z,78.08
2022-09-27T15:23:08.692Z,78.21
2022-09-27T15:25:45.442Z,78.38
2022-09-27T15:28:20.639Z,78.53
2022-09-27T15:30:59.179Z,78.67
2022-09-27T15:33:34.972Z,78.83
2022-09-27T15:36:11.250Z,78.82
2022-09-27T15:38:49.354Z,78.95
2022-09-27T15:41:23.031Z,79.40
2022-09-27T15:43:55.802Z,79.82
2022-09-27T15:46:41.968Z,80.56
2022-09-27T15:49:24.888Z,81.24
2022-09-27T15:52:01.473Z,82.01
2022-09-27T15:54:36.686Z,83.23
2022-09-27T15:57:12.237Z,84.36
2022-09-27T15:59:45.453Z,85.62
2022-09-27T16:02:21.528Z,86.42
2022-09-27T16:04:54.436Z,87.03
2022-09-27T16:07:27.649Z,87.81
2022-09-27T16:10:01.317Z,88.62
2022-09-27T16:12:34.726Z,89.14
2022-09-27T16:15:08.911Z,89.81
2022-09-27T16:17:43.997Z,90.24
2022-09-27T16:20:25.084Z,90.51
2022-09-27T16:22:58.759Z,90.84
2022-09-27T16:25:31.445Z,91.33
2022-09-27T16:28:05.546Z,91.62
2022-09-27T16:30:38.407Z,91.79
2022-09-27T16:33:11.269Z,92.12
2022-09-27T16:35:44.287Z,92.44
2022-09-27T16:38:18.017Z,92.99
2022-09-27T16:40:50.780Z,93.58
2022-09-27T16:43:25.715Z,94.14
2022-09-27T16:46:09.804Z,94.69
2022-09-27T16:48:44.717Z,95.01
2022-09-27T16:51:39.311Z,95.62
2022-09-27T16:54:16.779Z,96.36
2022-09-27T16:56:55.067Z,96.81
2022-09-27T16:59:25.945Z,97.53
2022-09-27T17:01:59.814Z,97.69
2022-09-27T17:04:33.391Z,97.99
2022-09-27T17:07:11.382Z,98.56
2022-09-27T17:09:46.190Z,99.08
2022-09-27T17:12:19.136Z,99.53
2022-09-27T17:14:53.139Z,99.62
2022-09-27T17:17:26.626Z,99.81
2022-09-27T17:20:00.363Z,99.79
2022-09-27T17:22:34.200Z,100.00
2022-09-27T17:25:09.973Z,100.00
2022-09-27T17:27:44.106Z,100.00
2022-09-27T17:30:17.502Z,100.00
2022-09-27T17:32:52.384Z,100.00
2022-09-27T17:35:45.349Z,100.00
2022-09-27T17:38:18.817Z,100.00
2022-09-27T17:40:53.615Z,100.00
2022-09-27T17:43:34.833Z,100.00
2022-09-27T17:46:30.892Z,100.00
2022-09-27T17:49:21.893Z,100.00
2022-09-27T17:51:55.866Z,100.00
2022-09-27T17:54:29.920Z,100.00
2022-09-27T17:57:03.354Z,100.00
2022-09-27T17:59:36.271Z,100.00
2022-09-27T18:02:10.705Z,100.00
2022-09-27T18:04:43.398Z,100.00
2022-09-27T18:07:17.888Z,100.00
2022-09-27T18:09:51.172Z,100.00
2022-09-27T18:12:26.393Z,100.00
2022-09-27T18:15:00.243Z,100.00
2022-09-27T18:17:34.524Z,100.00
2022-09-27T18:20:10.351Z,100.00
2022-09-27T18:22:43.450Z,100.00
2022-09-27T18:25:16.505Z,99.90
2022-09-27T18:27:53.057Z,99.79
2022-09-27T18:30:26.284Z,99.67
2022-09-27T18:32:59.617Z,99.59
2022-09-27T18:35:32.911Z,99.52
2022-09-27T18:38:06.203Z,99.38
2022-09-27T18:40:55.680Z,99.40
2022-09-27T18:43:13.470Z,99.17
2022-09-27T18:45:46.323Z,98.99
2022-09-27T18:48:19.595Z,99.25
2022-09-27T18:50:52.619Z,99.34
2022-09-27T18:53:25.481Z,99.35
2022-09-27T18:56:00.856Z,99.39
2022-09-27T18:58:34.095Z,99.40
2022-09-27T19:01:10.197Z,99.38
2022-09-27T19:03:44.380Z,99.46
2022-09-27T19:06:22.001Z,99.48
2022-09-27T19:08:59.124Z,99.50
2022-09-27T19:11:34.074Z,99.15
2022-09-27T19:14:08.079Z,99.21
2022-09-27T19:16:41.887Z,99.41
2022-09-27T19:19:17.135Z,99.52
2022-09-27T19:21:50.943Z,99.57
2022-09-27T19:24:24.041Z,99.60
2022-09-27T19:26:57.703Z,99.58
2022-09-27T19:29:30.850Z,99.72
2022-09-27T19:32:03.954Z,99.80
2022-09-27T19:34:38.561Z,100.00
2022-09-27T19:37:11.997Z,100.00
2022-09-27T19:39:44.938Z,100.00
2022-09-27T19:42:17.982Z,100.00
2022-09-27T19:44:51.089Z,100.00
2022-09-27T19:47:23.895Z,100.00
2022-09-27T19:49:58.525Z,100.00
2022-09-27T19:52:31.873Z,100.00
2022-09-27T19:55:05.339Z,100.00
2022-09-27T19:57:38.232Z,100.00
2022-09-27T20:00:12.913Z,100.00
2022-09-27T20:02:46.036Z,100.00
2022-09-27T20:05:19.261Z,100.00
2022-09-27T20:07:53.611Z,100.00
2022-09-27T20:10:25.396Z,100.00
2022-09-27T20:13:00.176Z,100.00
2022-09-27T20:15:33.060Z,100.00
2022-09-27T20:18:09.244Z,100.00
2022-09-27T20:20:41.845Z,100.00
2022-09-27T20:23:14.744Z,100.00
2022-09-27T20:25:48.467Z,100.00
2022-09-27T20:28:21.808Z,100.00
2022-09-27T20:31:00.239Z,100.00
2022-09-27T20:33:42.313Z,100.00
2022-09-27T20:36:18.974Z,100.00
2022-09-27T20:38:58.250Z,100.00
2022-09-27T20:41:29.775Z,100.00
2022-09-27T20:44:06.054Z,100.00
2022-09-27T20:46:40.282Z,100.00
2022-09-27T20:49:17.095Z,100.00
2022-09-27T20:51:51.538Z,100.00
2022-09-27T20:54:23.550Z,100.00
2022-09-27T20:56:56.249Z,100.00
2022-09-27T20:59:29.218Z,100.00
2022-09-27T21:02:02.143Z,100.00
2022-09-27T21:04:35.831Z,100.00
2022-09-27T21:07:08.947Z,100.00
2022-09-27T21:09:42.260Z,100.00
2022-09-27T21:12:16.594Z,100.00
2022-09-27T21:14:49.768Z,100.00
2022-09-27T21:17:22.639Z,100.00
2022-09-27T21:19:55.526Z,100.00
2022-09-27T21:22:28.515Z,100.00
2022-09-27T21:25:01.266Z,100.00
2022-09-27T21:27:34.639Z,100.00
2022-09-27T21:30:09.140Z,100.00
2022-09-27T21:32:43.118Z,100.00
2022-09-27T21:35:16.030Z,100.00
2022-09-27T21:37:48.876Z,100.00
2022-09-27T21:40:23.146Z,100.00
2022-09-27T21:42:57.732Z,100.00
2022-09-27T21:45:29.727Z,100.00
2022-09-27T21:48:03.453Z,100.00
2022-09-27T21:50:36.434Z,100.00
2022-09-27T21:53:11.105Z,100.00
2022-09-27T21:55:44.385Z,100.00
2022-09-27T21:58:17.132Z,100.00
2022-09-27T22:00:50.085Z,100.00
2022-09-27T22:03:22.945Z,100.00
2022-09-27T22:05:55.711Z,100.00
2022-09-27T22:08:30.390Z,100.00
2022-09-27T22:11:03.887Z,100.00
2022-09-27T22:13:37.438Z,100.00
2022-09-27T22:16:13.498Z,100.00
2022-09-27T22:18:52.470Z,100.00
2022-09-27T22:21:29.277Z,100.00
2022-09-27T22:24:08.564Z,100.00
2022-09-27T22:26:43.410Z,100.00
2022-09-27T22:29:16.652Z,100.00
2022-09-27T22:31:50.005Z,100.00
2022-09-27T22:34:25.205Z,100.00
2022-09-27T22:37:01.051Z,100.00
2022-09-27T22:39:43.059Z,100.00
2022-09-27T22:42:15.883Z,100.00
2022-09-27T22:44:48.743Z,100.00
2022-09-27T22:47:24.007Z,100.00
2022-09-27T22:49:58.590Z,100.00
2022-09-27T22:52:31.406Z,100.00
2022-09-27T22:55:04.261Z,100.00
2022-09-27T22:57:37.331Z,100.00
2022-09-27T23:00:11.548Z,100.00
2022-09-27T23:02:45.223Z,100.00
2022-09-27T23:05:18.072Z,100.00
2022-09-27T23:07:52.673Z,100.00
2022-09-27T23:10:25.792Z,100.00
2022-09-27T23:12:59.354Z,100.00
2022-09-27T23:15:33.695Z,100.00
2022-09-27T23:18:06.752Z,100.00
2022-09-27T23:20:40.170Z,100.00
2022-09-27T23:23:14.979Z,100.00
2022-09-27T23:25:48.045Z,100.00
2022-09-27T23:28:20.821Z,100.00
2022-09-27T23:30:54.208Z,100.00
2022-09-27T23:33:29.311Z,100.00
2022-09-27T23:36:03.902Z,100.00
2022-09-27T23:38:39.677Z,100.00
2022-09-27T23:41:12.735Z,100.00
2022-09-27T23:43:47.333Z,100.00
2022-09-27T23:46:19.679Z,100.00
2022-09-27T23:48:52.291Z,100.00
2022-09-27T23:51:25.255Z,100.00
2022-09-27T23:53:58.625Z,100.00
2022-09-27T23:56:31.311Z,100.00
2022-09-27T23:59:04.454Z,100.00
